עמוד ראשי
METAR-TAF:

METAR-TAF

שדות תעופה :

Sitka, אלסקה, ארצות הברית

קו רוחב: 57-02-53N, קו אורך: 135-21-53W, גובה: 6מטר

תצפית מזג אוויר נוכחית

הדו"ח נערך לפני 53דקות, בשעה 08:53 UTC
רוח רגועה
טמפרטורת 11 צלסיוס
לחות 94%
לחץ 1014 hPa
ראות: 3.2קילומטר
עננים פזורים בגובה 100רגל
מעונן בגובה 300רגל
אד

METAR: PASI 240853Z 00000KT 2SM BR SCT001 OVC003 11/10 A2995 RMK AO2 SLP143 T01110100 401560111 53007 $

זמן: 01:46 (09:46 UTC)

תחזית

הדו"ח נערך לפני 4 שעות ו 7דקות, בשעה 05:39 UTC
תחזית בתוקף מ 24 ב 06 UTC עד 25 ב 06 UTC
רוח 5קשר מכיוון מערב/דרום-מערב
ראות: 1.6קילומטר
עננים בינוניים בגובה 100רגל
מעונן בגובה 400רגל
אד
מ 24 ב 1300UTC
רוח 3קשר עם כיוונים משתנים
ראות: 3.2קילומטר
עננים בינוניים בגובה 300רגל
מעונן בגובה 700רגל
טפטוף קל, אד
מ 24 ב 2000UTC
רוח 3קשר עם כיוונים משתנים
ראות: 9.7קילומטר
מעט עננים בגובה 700רגל
מעונן בגובה 1500רגל
גשם קל, אד,

TAF: PASI 240539Z 2406/2506 24005KT 1SM BR BKN001 OVC004 FM241300 VRB03KT 2SM -DZ BR BKN003 OVC007 FM242000 VRB03KT 6SM -RA BR FEW007 OVC015

תצפיות ותחזיות מזג אוויר לגבי יותר מ- 4,000 שדות תעופה ברחבי העולם. דוחות METAR ו- TAF.

התחנות הזמינות מסומנות בנקודות צהובות ואדומות על גבי המפה.

העבר את העכבר לנקודה הצבעונית על מנת לראות את שם התחנה.

לאחר מכן, לחץ כדי לראות את תוכן ואת תחזיות מזג האוויר.

כדי לשנות את המפה: לחץ על הכפתורים הירוקים עם הפלוס השחור כדי להתקרב; על הכפתור הירוק עם המקף כדי להתרחק; או בחיצים הירוקים למפות סמוכות.


METAR-TAF: